sensor_id;sensor_type;location;lat;lon;timestamp;pressure;altitude;pressure_sealevel;temperature;humidity
61292;BME280;47165;42.664;23.368;2024-02-26T00:01:36;94583.25;;;12.05;57.00
61292;BME280;47165;42.664;23.368;2024-02-26T00:04:02;94585.16;;;12.03;57.20
61292;BME280;47165;42.664;23.368;2024-02-26T00:06:31;94585.16;;;12.03;57.30
61292;BME280;47165;42.664;23.368;2024-02-26T00:08:58;94580.75;;;12.03;57.30
61292;BME280;47165;42.664;23.368;2024-02-26T00:11:24;94573.03;;;12.02;57.07
61292;BME280;47165;42.664;23.368;2024-02-26T00:13:49;94572.16;;;12.01;57.02
61292;BME280;47165;42.664;23.368;2024-02-26T00:16:15;94575.84;;;11.99;57.15
61292;BME280;47165;42.664;23.368;2024-02-26T00:18:40;94575.00;;;11.98;57.29
61292;BME280;47165;42.664;23.368;2024-02-26T00:21:06;94583.06;;;11.95;57.25
61292;BME280;47165;42.664;23.368;2024-02-26T00:23:31;94577.00;;;11.95;57.12
61292;BME280;47165;42.664;23.368;2024-02-26T00:25:57;94573.66;;;11.93;57.34
61292;BME280;47165;42.664;23.368;2024-02-26T00:28:23;94571.13;;;11.91;57.81
61292;BME280;47165;42.664;23.368;2024-02-26T00:30:50;94566.75;;;11.92;57.95
61292;BME280;47165;42.664;23.368;2024-02-26T00:33:21;94571.31;;;11.88;58.28
61292;BME280;47165;42.664;23.368;2024-02-26T00:35:47;94562.44;;;11.91;58.49
61292;BME280;47165;42.664;23.368;2024-02-26T00:38:12;94559.41;;;11.97;58.33
61292;BME280;47165;42.664;23.368;2024-02-26T00:40:38;94555.00;;;11.97;58.24
61292;BME280;47165;42.664;23.368;2024-02-26T00:43:03;94564.88;;;11.94;58.23
61292;BME280;47165;42.664;23.368;2024-02-26T00:45:29;94552.72;;;11.93;57.96
61292;BME280;47165;42.664;23.368;2024-02-26T00:47:54;94554.41;;;11.94;58.11
61292;BME280;47165;42.664;23.368;2024-02-26T00:50:21;94542.25;;;11.93;58.25
61292;BME280;47165;42.664;23.368;2024-02-26T00:52:46;94538.81;;;11.92;58.39
61292;BME280;47165;42.664;23.368;2024-02-26T00:55:12;94538.81;;;11.92;58.42
61292;BME280;47165;42.664;23.368;2024-02-26T00:57:37;94537.97;;;11.92;58.34
61292;BME280;47165;42.664;23.368;2024-02-26T01:00:03;94532.19;;;11.86;58.42
61292;BME280;47165;42.664;23.368;2024-02-26T01:02:29;94530.53;;;11.85;58.27
61292;BME280;47165;42.664;23.368;2024-02-26T01:04:54;94535.56;;;11.88;58.25
61292;BME280;47165;42.664;23.368;2024-02-26T01:07:20;94530.94;;;11.79;58.32
61292;BME280;47165;42.664;23.368;2024-02-26T01:09:45;94532.63;;;11.80;58.38
61292;BME280;47165;42.664;23.368;2024-02-26T01:12:11;94525.81;;;11.78;58.58
61292;BME280;47165;42.664;23.368;2024-02-26T01:14:36;94524.25;;;11.75;58.57
61292;BME280;47165;42.664;23.368;2024-02-26T01:17:01;94528.75;;;11.73;58.66
61292;BME280;47165;42.664;23.368;2024-02-26T01:19:28;94538.06;;;11.77;58.71
61292;BME280;47165;42.664;23.368;2024-02-26T01:21:53;94533.66;;;11.78;58.56
61292;BME280;47165;42.664;23.368;2024-02-26T01:24:19;94533.34;;;11.82;58.46
61292;BME280;47165;42.664;23.368;2024-02-26T01:26:44;94530.63;;;11.84;58.31
61292;BME280;47165;42.664;23.368;2024-02-26T01:29:09;94521.09;;;11.83;58.28
61292;BME280;47165;42.664;23.368;2024-02-26T01:31:35;94527.38;;;11.80;58.58
61292;BME280;47165;42.664;23.368;2024-02-26T01:34:01;94525.00;;;11.77;58.90
61292;BME280;47165;42.664;23.368;2024-02-26T01:36:27;94526.75;;;11.77;59.16
61292;BME280;47165;42.664;23.368;2024-02-26T01:38:52;94530.94;;;11.79;59.40
61292;BME280;47165;42.664;23.368;2024-02-26T01:41:18;94518.59;;;11.81;59.43
61292;BME280;47165;42.664;23.368;2024-02-26T01:43:43;94524.66;;;11.82;59.48
61292;BME280;47165;42.664;23.368;2024-02-26T01:46:11;94521.81;;;11.85;59.45
61292;BME280;47165;42.664;23.368;2024-02-26T01:48:40;94515.13;;;11.81;59.67
61292;BME280;47165;42.664;23.368;2024-02-26T01:51:06;94518.38;;;11.84;59.72
61292;BME280;47165;42.664;23.368;2024-02-26T01:53:31;94512.31;;;11.84;59.81
61292;BME280;47165;42.664;23.368;2024-02-26T01:55:57;94519.88;;;11.88;59.83
61292;BME280;47165;42.664;23.368;2024-02-26T01:58:23;94516.91;;;11.93;59.46
61292;BME280;47165;42.664;23.368;2024-02-26T02:00:49;94507.50;;;11.91;59.55
61292;BME280;47165;42.664;23.368;2024-02-26T02:03:15;94511.91;;;11.90;59.69
61292;BME280;47165;42.664;23.368;2024-02-26T02:05:41;94510.84;;;11.93;59.48
61292;BME280;47165;42.664;23.368;2024-02-26T02:08:09;94508.97;;;11.95;59.33
61292;BME280;47165;42.664;23.368;2024-02-26T02:10:38;94510.13;;;11.91;59.42
61292;BME280;47165;42.664;23.368;2024-02-26T02:13:03;94511.09;;;11.90;59.22
61292;BME280;47165;42.664;23.368;2024-02-26T02:15:29;94506.03;;;11.86;59.51
61292;BME280;47165;42.664;23.368;2024-02-26T02:17:54;94507.09;;;11.84;59.33
61292;BME280;47165;42.664;23.368;2024-02-26T02:20:25;94506.97;;;11.85;59.36
61292;BME280;47165;42.664;23.368;2024-02-26T02:22:52;94512.31;;;11.84;60.17
61292;BME280;47165;42.664;23.368;2024-02-26T02:25:18;94516.00;;;11.81;60.61
61292;BME280;47165;42.664;23.368;2024-02-26T02:27:43;94521.00;;;11.84;60.54
61292;BME280;47165;42.664;23.368;2024-02-26T02:30:10;94513.16;;;11.84;60.72
61292;BME280;47165;42.664;23.368;2024-02-26T02:32:38;94516.59;;;11.85;60.97
61292;BME280;47165;42.664;23.368;2024-02-26T02:35:05;94513.78;;;11.88;61.11
61292;BME280;47165;42.664;23.368;2024-02-26T02:37:30;94510.13;;;11.91;60.99
61292;BME280;47165;42.664;23.368;2024-02-26T02:39:56;94514.44;;;11.92;61.06
61292;BME280;47165;42.664;23.368;2024-02-26T02:42:23;94512.66;;;11.92;61.34
61292;BME280;47165;42.664;23.368;2024-02-26T02:44:48;94515.25;;;11.92;61.25
61292;BME280;47165;42.664;23.368;2024-02-26T02:47:14;94509.81;;;11.95;61.31
61292;BME280;47165;42.664;23.368;2024-02-26T02:49:40;94513.28;;;11.96;61.23
61292;BME280;47165;42.664;23.368;2024-02-26T02:52:06;94512.31;;;11.97;61.04
61292;BME280;47165;42.664;23.368;2024-02-26T02:54:32;94506.25;;;11.96;60.89
61292;BME280;47165;42.664;23.368;2024-02-26T02:56:57;94512.31;;;11.97;60.55
61292;BME280;47165;42.664;23.368;2024-02-26T02:59:23;94513.16;;;11.97;60.40
61292;BME280;47165;42.664;23.368;2024-02-26T03:01:48;94518.50;;;11.96;60.31
61292;BME280;47165;42.664;23.368;2024-02-26T03:04:14;94520.16;;;11.97;60.15
61292;BME280;47165;42.664;23.368;2024-02-26T03:06:40;94520.41;;;11.94;60.51
61292;BME280;47165;42.664;23.368;2024-02-26T03:09:05;94523.00;;;11.94;60.53
61292;BME280;47165;42.664;23.368;2024-02-26T03:11:30;94534.22;;;11.96;60.73
61292;BME280;47165;42.664;23.368;2024-02-26T03:13:56;94527.81;;;12.00;60.70
61292;BME280;47165;42.664;23.368;2024-02-26T03:16:21;94527.28;;;11.95;60.78
61292;BME280;47165;42.664;23.368;2024-02-26T03:18:47;94529.81;;;11.96;60.86
61292;BME280;47165;42.664;23.368;2024-02-26T03:21:12;94525.41;;;11.97;60.68
61292;BME280;47165;42.664;23.368;2024-02-26T03:23:38;94515.66;;;11.99;60.88
61292;BME280;47165;42.664;23.368;2024-02-26T03:26:03;94514.84;;;11.98;60.81
61292;BME280;47165;42.664;23.368;2024-02-26T03:28:29;94511.25;;;11.99;60.94
61292;BME280;47165;42.664;23.368;2024-02-26T03:30:56;94507.59;;;12.02;60.71
61292;BME280;47165;42.664;23.368;2024-02-26T03:33:22;94510.00;;;12.05;60.73
61292;BME280;47165;42.664;23.368;2024-02-26T03:35:48;94504.13;;;12.01;60.62
61292;BME280;47165;42.664;23.368;2024-02-26T03:38:13;94508.53;;;12.01;60.51
61292;BME280;47165;42.664;23.368;2024-02-26T03:40:39;94509.38;;;12.01;60.11
61292;BME280;47165;42.664;23.368;2024-02-26T03:43:04;94501.41;;;12.03;59.98
61292;BME280;47165;42.664;23.368;2024-02-26T03:45:32;94496.91;;;12.05;60.16
61292;BME280;47165;42.664;23.368;2024-02-26T03:47:57;94498.91;;;12.01;60.36
61292;BME280;47165;42.664;23.368;2024-02-26T03:50:26;94499.34;;;11.95;60.75
61292;BME280;47165;42.664;23.368;2024-02-26T03:52:51;94501.66;;;12.00;60.55
61292;BME280;47165;42.664;23.368;2024-02-26T03:55:16;94499.03;;;12.00;60.40
61292;BME280;47165;42.664;23.368;2024-02-26T03:57:47;94502.81;;;11.96;60.37
61292;BME280;47165;42.664;23.368;2024-02-26T04:00:13;94497.88;;;11.91;60.25
61292;BME280;47165;42.664;23.368;2024-02-26T04:02:38;94503.97;;;11.92;60.38
61292;BME280;47165;42.664;23.368;2024-02-26T04:05:04;94498.59;;;11.93;60.69
61292;BME280;47165;42.664;23.368;2024-02-26T04:07:30;94489.00;;;11.94;60.51
61292;BME280;47165;42.664;23.368;2024-02-26T04:09:56;94485.66;;;11.92;60.61
61292;BME280;47165;42.664;23.368;2024-02-26T04:12:21;94497.06;;;11.91;60.97
61292;BME280;47165;42.664;23.368;2024-02-26T04:14:46;94491.16;;;11.87;60.85
61292;BME280;47165;42.664;23.368;2024-02-26T04:17:12;94483.97;;;11.91;60.83
61292;BME280;47165;42.664;23.368;2024-02-26T04:19:38;94476.31;;;11.87;61.12
61292;BME280;47165;42.664;23.368;2024-02-26T04:22:04;94484.28;;;11.86;60.91
61292;BME280;47165;42.664;23.368;2024-02-26T04:24:30;94480.69;;;11.87;60.88
61292;BME280;47165;42.664;23.368;2024-02-26T04:26:55;94481.97;;;11.81;61.19
61292;BME280;47165;42.664;23.368;2024-02-26T04:29:21;94467.22;;;11.80;61.22
61292;BME280;47165;42.664;23.368;2024-02-26T04:31:46;94475.16;;;11.79;61.44
61292;BME280;47165;42.664;23.368;2024-02-26T04:34:13;94476.03;;;11.79;61.43
61292;BME280;47165;42.664;23.368;2024-02-26T04:36:38;94478.66;;;11.79;61.50
61292;BME280;47165;42.664;23.368;2024-02-26T04:39:04;94482.81;;;11.82;61.16
61292;BME280;47165;42.664;23.368;2024-02-26T04:41:30;94487.22;;;11.81;61.23
61292;BME280;47165;42.664;23.368;2024-02-26T04:43:56;94485.53;;;11.80;61.20
61292;BME280;47165;42.664;23.368;2024-02-26T04:46:21;94482.81;;;11.82;60.94
61292;BME280;47165;42.664;23.368;2024-02-26T04:48:50;94474.34;;;11.78;60.91
61292;BME280;47165;42.664;23.368;2024-02-26T04:51:16;94483.88;;;11.79;61.03
61292;BME280;47165;42.664;23.368;2024-02-26T04:53:41;94489.09;;;11.79;60.44
61292;BME280;47165;42.664;23.368;2024-02-26T04:56:07;94488.66;;;11.73;60.56
61292;BME280;47165;42.664;23.368;2024-02-26T04:58:34;94489.09;;;11.66;60.88
61292;BME280;47165;42.664;23.368;2024-02-26T05:00:59;94491.63;;;11.68;60.56
61292;BME280;47165;42.664;23.368;2024-02-26T05:03:24;94494.34;;;11.66;60.91
61292;BME280;47165;42.664;23.368;2024-02-26T05:05:50;94499.78;;;11.63;60.50
61292;BME280;47165;42.664;23.368;2024-02-26T05:08:15;94501.78;;;11.60;60.88
61292;BME280;47165;42.664;23.368;2024-02-26T05:10:41;94501.03;;;11.58;60.97
61292;BME280;47165;42.664;23.368;2024-02-26T05:13:08;94503.47;;;11.61;60.88
61292;BME280;47165;42.664;23.368;2024-02-26T05:15:34;94507.00;;;11.60;60.95
61292;BME280;47165;42.664;23.368;2024-02-26T05:17:59;94514.84;;;11.60;60.95
61292;BME280;47165;42.664;23.368;2024-02-26T05:20:25;94520.06;;;11.60;61.10
61292;BME280;47165;42.664;23.368;2024-02-26T05:22:51;94523.41;;;11.62;60.98
61292;BME280;47165;42.664;23.368;2024-02-26T05:25:17;94527.00;;;11.61;61.12
61292;BME280;47165;42.664;23.368;2024-02-26T05:27:43;94527.41;;;11.67;60.72
61292;BME280;47165;42.664;23.368;2024-02-26T05:30:10;94528.97;;;11.70;60.94
61292;BME280;47165;42.664;23.368;2024-02-26T05:32:35;94531.06;;;11.65;61.32
61292;BME280;47165;42.664;23.368;2024-02-26T05:35:01;94535.75;;;11.60;61.87
61292;BME280;47165;42.664;23.368;2024-02-26T05:37:29;94542.47;;;11.64;62.03
61292;BME280;47165;42.664;23.368;2024-02-26T05:39:54;94536.59;;;11.60;62.07
61292;BME280;47165;42.664;23.368;2024-02-26T05:42:20;94541.81;;;11.60;62.31
61292;BME280;47165;42.664;23.368;2024-02-26T05:44:46;94545.28;;;11.61;62.09
61292;BME280;47165;42.664;23.368;2024-02-26T05:47:11;94547.69;;;11.64;62.11
61292;BME280;47165;42.664;23.368;2024-02-26T05:49:38;94549.38;;;11.65;62.12
61292;BME280;47165;42.664;23.368;2024-02-26T05:52:04;94549.56;;;11.62;62.23
61292;BME280;47165;42.664;23.368;2024-02-26T05:54:30;94546.22;;;11.60;62.23
61292;BME280;47165;42.664;23.368;2024-02-26T05:56:55;94537.44;;;11.61;62.18
61292;BME280;47165;42.664;23.368;2024-02-26T05:59:21;94551.03;;;11.66;62.07
61292;BME280;47165;42.664;23.368;2024-02-26T06:01:47;94547.59;;;11.65;62.16
61292;BME280;47165;42.664;23.368;2024-02-26T06:04:12;94553.75;;;11.64;61.95
61292;BME280;47165;42.664;23.368;2024-02-26T06:06:38;94560.66;;;11.65;62.13
61292;BME280;47165;42.664;23.368;2024-02-26T06:09:04;94551.75;;;11.68;62.10
61292;BME280;47165;42.664;23.368;2024-02-26T06:11:30;94552.31;;;11.73;61.93
61292;BME280;47165;42.664;23.368;2024-02-26T06:13:56;94564.41;;;11.74;62.15
61292;BME280;47165;42.664;23.368;2024-02-26T06:16:21;94566.09;;;11.75;62.27
61292;BME280;47165;42.664;23.368;2024-02-26T06:18:47;94561.72;;;11.76;62.04
61292;BME280;47165;42.664;23.368;2024-02-26T06:21:12;94570.38;;;11.76;62.07
61292;BME280;47165;42.664;23.368;2024-02-26T06:23:39;94564.41;;;11.74;62.30
61292;BME280;47165;42.664;23.368;2024-02-26T06:26:05;94565.25;;;11.75;62.26
61292;BME280;47165;42.664;23.368;2024-02-26T06:28:31;94566.72;;;11.79;62.00
61292;BME280;47165;42.664;23.368;2024-02-26T06:30:58;94562.94;;;11.83;61.98
61292;BME280;47165;42.664;23.368;2024-02-26T06:33:24;94564.72;;;11.82;61.98
61292;BME280;47165;42.664;23.368;2024-02-26T06:35:49;94561.38;;;11.80;62.23
61292;BME280;47165;42.664;23.368;2024-02-26T06:38:14;94560.22;;;11.84;62.31
61292;BME280;47165;42.664;23.368;2024-02-26T06:40:40;94567.88;;;11.87;62.05
61292;BME280;47165;42.664;23.368;2024-02-26T06:43:06;94561.91;;;11.85;62.19
61292;BME280;47165;42.664;23.368;2024-02-26T06:45:31;94566.94;;;11.88;62.35
61292;BME280;47165;42.664;23.368;2024-02-26T06:47:58;94565.81;;;11.93;62.10
61292;BME280;47165;42.664;23.368;2024-02-26T06:50:23;94562.56;;;11.89;62.18
61292;BME280;47165;42.664;23.368;2024-02-26T06:52:48;94569.97;;;11.95;62.19
61292;BME280;47165;42.664;23.368;2024-02-26T06:55:14;94565.38;;;11.99;62.01
61292;BME280;47165;42.664;23.368;2024-02-26T06:57:39;94566.09;;;12.01;62.20
61292;BME280;47165;42.664;23.368;2024-02-26T07:00:05;94558.06;;;12.04;62.00
61292;BME280;47165;42.664;23.368;2024-02-26T07:02:31;94559.81;;;12.03;62.23
61292;BME280;47165;42.664;23.368;2024-02-26T07:04:56;94568.41;;;12.05;62.24
61292;BME280;47165;42.664;23.368;2024-02-26T07:07:24;94564.03;;;12.06;62.41
61292;BME280;47165;42.664;23.368;2024-02-26T07:09:49;94569.84;;;12.10;62.41
61292;BME280;47165;42.664;23.368;2024-02-26T07:12:15;94572.38;;;12.11;62.17
61292;BME280;47165;42.664;23.368;2024-02-26T07:14:41;94581.69;;;12.15;62.22
61292;BME280;47165;42.664;23.368;2024-02-26T07:17:06;94579.78;;;12.17;62.04
61292;BME280;47165;42.664;23.368;2024-02-26T07:19:33;94580.53;;;12.19;62.02
61292;BME280;47165;42.664;23.368;2024-02-26T07:21:59;94582.31;;;12.19;62.20
61292;BME280;47165;42.664;23.368;2024-02-26T07:24:28;94579.47;;;12.22;62.36
61292;BME280;47165;42.664;23.368;2024-02-26T07:26:53;94584.41;;;12.26;62.22
61292;BME280;47165;42.664;23.368;2024-02-26T07:29:20;94582.72;;;12.25;62.22
61292;BME280;47165;42.664;23.368;2024-02-26T07:31:46;94575.59;;;12.27;62.15
61292;BME280;47165;42.664;23.368;2024-02-26T07:34:12;94578.94;;;12.30;62.17
61292;BME280;47165;42.664;23.368;2024-02-26T07:36:37;94587.19;;;12.36;62.25
61292;BME280;47165;42.664;23.368;2024-02-26T07:39:03;94580.78;;;12.40;62.21
61292;BME280;47165;42.664;23.368;2024-02-26T07:41:28;94587.38;;;12.46;62.45
61292;BME280;47165;42.664;23.368;2024-02-26T07:43:54;94583.59;;;12.50;62.23
61292;BME280;47165;42.664;23.368;2024-02-26T07:46:19;94580.44;;;12.58;62.20
61292;BME280;47165;42.664;23.368;2024-02-26T07:48:45;94590.56;;;12.62;62.23
61292;BME280;47165;42.664;23.368;2024-02-26T07:51:12;94585.50;;;12.72;62.26
61292;BME280;47165;42.664;23.368;2024-02-26T07:53:39;94590.50;;;12.75;62.10
61292;BME280;47165;42.664;23.368;2024-02-26T07:56:04;94577.09;;;12.80;61.77
61292;BME280;47165;42.664;23.368;2024-02-26T07:58:30;94580.72;;;12.90;61.59
61292;BME280;47165;42.664;23.368;2024-02-26T08:00:57;94576.69;;;12.97;61.36
61292;BME280;47165;42.664;23.368;2024-02-26T08:05:56;94571.63;;;13.07;61.51
61292;BME280;47165;42.664;23.368;2024-02-26T08:08:22;94565.56;;;13.18;61.22
61292;BME280;47165;42.664;23.368;2024-02-26T08:10:47;94562.06;;;13.06;61.15
61292;BME280;47165;42.664;23.368;2024-02-26T08:13:13;94560.44;;;13.16;60.53
61292;BME280;47165;42.664;23.368;2024-02-26T08:15:38;94563.31;;;13.24;60.58
61292;BME280;47165;42.664;23.368;2024-02-26T08:18:04;94559.53;;;13.28;60.66
61292;BME280;47165;42.664;23.368;2024-02-26T08:20:30;94564.13;;;13.38;60.81
61292;BME280;47165;42.664;23.368;2024-02-26T08:22:56;94565.47;;;13.43;60.52
61292;BME280;47165;42.664;23.368;2024-02-26T08:25:22;94565.72;;;13.52;60.60
61292;BME280;47165;42.664;23.368;2024-02-26T08:27:48;94568.47;;;13.61;60.34
61292;BME280;47165;42.664;23.368;2024-02-26T08:30:16;94570.16;;;13.74;60.03
61292;BME280;47165;42.664;23.368;2024-02-26T08:32:43;94565.16;;;13.82;60.03
61292;BME280;47165;42.664;23.368;2024-02-26T08:35:08;94566.25;;;13.91;59.89
61292;BME280;47165;42.664;23.368;2024-02-26T08:37:34;94568.25;;;13.98;59.88
61292;BME280;47165;42.664;23.368;2024-02-26T08:39:59;94559.31;;;14.12;59.50
61292;BME280;47165;42.664;23.368;2024-02-26T08:42:24;94559.66;;;14.19;58.30
61292;BME280;47165;42.664;23.368;2024-02-26T08:44:50;94557.28;;;14.27;57.98
61292;BME280;47165;42.664;23.368;2024-02-26T08:47:15;94562.06;;;14.33;57.20
61292;BME280;47165;42.664;23.368;2024-02-26T08:49:45;94561.34;;;14.42;56.92
61292;BME280;47165;42.664;23.368;2024-02-26T08:52:11;94546.88;;;14.48;56.88
61292;BME280;47165;42.664;23.368;2024-02-26T08:54:36;94551.66;;;14.54;56.71
61292;BME280;47165;42.664;23.368;2024-02-26T08:57:02;94557.16;;;14.62;56.74
61292;BME280;47165;42.664;23.368;2024-02-26T08:59:28;94560.25;;;14.67;55.91
61292;BME280;47165;42.664;23.368;2024-02-26T09:01:53;94558.81;;;14.75;55.05
61292;BME280;47165;42.664;23.368;2024-02-26T09:04:19;94551.97;;;14.83;55.24
61292;BME280;47165;42.664;23.368;2024-02-26T09:06:44;94542.88;;;14.87;55.02
61292;BME280;47165;42.664;23.368;2024-02-26T09:09:10;94545.72;;;14.96;54.17
61292;BME280;47165;42.664;23.368;2024-02-26T09:11:36;94539.56;;;15.06;54.30
61292;BME280;47165;42.664;23.368;2024-02-26T09:14:02;94542.88;;;15.20;53.02
61292;BME280;47165;42.664;23.368;2024-02-26T09:16:29;94542.59;;;15.23;53.52
61292;BME280;47165;42.664;23.368;2024-02-26T09:18:56;94543.88;;;15.28;52.73
61292;BME280;47165;42.664;23.368;2024-02-26T09:21:22;94534.31;;;15.27;52.93
61292;BME280;47165;42.664;23.368;2024-02-26T09:23:52;94543.50;;;15.33;53.28
61292;BME280;47165;42.664;23.368;2024-02-26T09:26:19;94534.41;;;15.37;53.43
61292;BME280;47165;42.664;23.368;2024-02-26T09:28:44;94534.47;;;15.47;53.07
61292;BME280;47165;42.664;23.368;2024-02-26T09:31:10;94533.13;;;15.53;52.29
61292;BME280;47165;42.664;23.368;2024-02-26T09:33:36;94538.56;;;15.61;51.70
61292;BME280;47165;42.664;23.368;2024-02-26T09:36:02;94533.88;;;15.64;51.21
61292;BME280;47165;42.664;23.368;2024-02-26T09:38:28;94532.53;;;15.70;51.64
61292;BME280;47165;42.664;23.368;2024-02-26T09:40:58;94534.41;;;15.79;51.05
61292;BME280;47165;42.664;23.368;2024-02-26T09:43:25;94522.66;;;15.83;50.92
61292;BME280;47165;42.664;23.368;2024-02-26T09:45:56;94521.44;;;15.87;49.93
61292;BME280;47165;42.664;23.368;2024-02-26T09:48:22;94520.38;;;16.00;49.97
61292;BME280;47165;42.664;23.368;2024-02-26T09:50:49;94520.22;;;16.01;50.09
61292;BME280;47165;42.664;23.368;2024-02-26T09:53:14;94530.22;;;16.07;49.71
61292;BME280;47165;42.664;23.368;2024-02-26T09:55:42;94523.59;;;16.13;49.81
61292;BME280;47165;42.664;23.368;2024-02-26T09:58:08;94521.66;;;16.15;48.82
61292;BME280;47165;42.664;23.368;2024-02-26T10:00:37;94510.31;;;16.15;48.61
61292;BME280;47165;42.664;23.368;2024-02-26T10:03:05;94520.59;;;16.27;48.95
61292;BME280;47165;42.664;23.368;2024-02-26T10:05:35;94521.47;;;16.38;48.99
61292;BME280;47165;42.664;23.368;2024-02-26T10:08:04;94517.34;;;16.45;48.04
61292;BME280;47165;42.664;23.368;2024-02-26T10:10:30;94516.47;;;16.35;47.52
61292;BME280;47165;42.664;23.368;2024-02-26T10:12:57;94515.38;;;16.37;47.14
61292;BME280;47165;42.664;23.368;2024-02-26T10:15:23;94517.88;;;16.39;46.86
61292;BME280;47165;42.664;23.368;2024-02-26T10:17:49;94514.97;;;16.42;46.41
61292;BME280;47165;42.664;23.368;2024-02-26T10:20:16;94510.13;;;16.47;46.69
61292;BME280;47165;42.664;23.368;2024-02-26T10:22:47;94507.22;;;16.50;46.50
61292;BME280;47165;42.664;23.368;2024-02-26T10:25:14;94508.47;;;16.56;46.81
61292;BME280;47165;42.664;23.368;2024-02-26T10:27:41;94496.25;;;16.55;46.72
61292;BME280;47165;42.664;23.368;2024-02-26T10:30:20;94497.66;;;16.68;46.78
61292;BME280;47165;42.664;23.368;2024-02-26T10:32:47;94495.44;;;16.64;45.71
61292;BME280;47165;42.664;23.368;2024-02-26T10:35:14;94492.53;;;16.77;45.94
61292;BME280;47165;42.664;23.368;2024-02-26T10:37:40;94484.13;;;16.83;45.84
61292;BME280;47165;42.664;23.368;2024-02-26T10:40:10;94483.44;;;16.91;45.79
61292;BME280;47165;42.664;23.368;2024-02-26T10:42:36;94476.09;;;16.94;45.82
61292;BME280;47165;42.664;23.368;2024-02-26T10:45:01;94471.91;;;17.01;45.12
61292;BME280;47165;42.664;23.368;2024-02-26T10:47:29;94473.59;;;17.02;45.46
61292;BME280;47165;42.664;23.368;2024-02-26T10:49:56;94471.91;;;17.11;45.33
61292;BME280;47165;42.664;23.368;2024-02-26T10:52:22;94470.22;;;17.10;45.28
61292;BME280;47165;42.664;23.368;2024-02-26T10:54:53;94466.19;;;17.06;43.91
61292;BME280;47165;42.664;23.368;2024-02-26T10:57:22;94467.31;;;17.13;43.97
61292;BME280;47165;42.664;23.368;2024-02-26T10:59:48;94468.13;;;17.23;44.38
61292;BME280;47165;42.664;23.368;2024-02-26T11:02:14;94463.56;;;17.16;43.85
61292;BME280;47165;42.664;23.368;2024-02-26T11:04:40;94466.63;;;17.11;43.32
61292;BME280;47165;42.664;23.368;2024-02-26T11:07:08;94463.84;;;17.13;43.23
61292;BME280;47165;42.664;23.368;2024-02-26T11:09:35;94469.41;;;17.00;43.79
61292;BME280;47165;42.664;23.368;2024-02-26T11:12:02;94465.94;;;17.19;44.10
61292;BME280;47165;42.664;23.368;2024-02-26T11:14:29;94458.66;;;17.30;44.54
61292;BME280;47165;42.664;23.368;2024-02-26T11:16:55;94459.66;;;17.39;44.01
61292;BME280;47165;42.664;23.368;2024-02-26T11:19:21;94457.97;;;17.48;44.13
61292;BME280;47165;42.664;23.368;2024-02-26T11:21:49;94460.41;;;17.59;44.02
61292;BME280;47165;42.664;23.368;2024-02-26T11:24:16;94454.28;;;17.68;43.31
61292;BME280;47165;42.664;23.368;2024-02-26T11:26:52;94455.41;;;17.66;42.65
61292;BME280;47165;42.664;23.368;2024-02-26T11:29:28;94462.44;;;17.75;42.41
61292;BME280;47165;42.664;23.368;2024-02-26T11:31:55;94456.22;;;17.76;42.18
61292;BME280;47165;42.664;23.368;2024-02-26T11:34:20;94456.66;;;17.62;41.66
61292;BME280;47165;42.664;23.368;2024-02-26T11:36:46;94457.38;;;17.64;42.34
61292;BME280;47165;42.664;23.368;2024-02-26T11:39:12;94457.94;;;17.58;42.07
61292;BME280;47165;42.664;23.368;2024-02-26T11:41:40;94449.47;;;17.54;41.43
61292;BME280;47165;42.664;23.368;2024-02-26T11:44:07;94451.97;;;17.56;42.07
61292;BME280;47165;42.664;23.368;2024-02-26T11:46:39;94453.09;;;17.43;42.04
61292;BME280;47165;42.664;23.368;2024-02-26T11:51:58;94452.13;;;17.44;42.07
61292;BME280;47165;42.664;23.368;2024-02-26T12:02:37;94441.00;;;17.50;41.06
61292;BME280;47165;42.664;23.368;2024-02-26T12:05:07;94444.72;;;17.58;41.17
61292;BME280;47165;42.664;23.368;2024-02-26T12:07:35;94447.78;;;17.53;40.82
61292;BME280;47165;42.664;23.368;2024-02-26T12:10:23;94443.25;;;17.45;40.55
61292;BME280;47165;42.664;23.368;2024-02-26T12:13:03;94444.16;;;17.64;40.90
61292;BME280;47165;42.664;23.368;2024-02-26T12:15:33;94443.16;;;17.75;41.50
61292;BME280;47165;42.664;23.368;2024-02-26T12:18:07;94441.06;;;17.78;40.43
61292;BME280;47165;42.664;23.368;2024-02-26T12:20:33;94445.78;;;17.84;39.76
61292;BME280;47165;42.664;23.368;2024-02-26T12:23:01;94442.16;;;17.85;39.86
61292;BME280;47165;42.664;23.368;2024-02-26T12:25:28;94446.41;;;17.96;40.16
61292;BME280;47165;42.664;23.368;2024-02-26T12:27:55;94444.16;;;18.01;39.88
61292;BME280;47165;42.664;23.368;2024-02-26T12:30:21;94440.91;;;18.17;40.21
61292;BME280;47165;42.664;23.368;2024-02-26T12:32:48;94443.19;;;18.30;39.78
61292;BME280;47165;42.664;23.368;2024-02-26T12:35:14;94448.69;;;18.37;39.22
61292;BME280;47165;42.664;23.368;2024-02-26T12:37:41;94438.66;;;18.40;39.20
61292;BME280;47165;42.664;23.368;2024-02-26T12:40:08;94438.69;;;18.58;39.24
61292;BME280;47165;42.664;23.368;2024-02-26T12:42:38;94439.81;;;18.74;39.63
61292;BME280;47165;42.664;23.368;2024-02-26T12:45:08;94430.56;;;18.87;39.31
61292;BME280;47165;42.664;23.368;2024-02-26T12:47:44;94434.91;;;19.15;38.53
61292;BME280;47165;42.664;23.368;2024-02-26T12:50:15;94432.44;;;19.39;38.62
61292;BME280;47165;42.664;23.368;2024-02-26T12:52:46;94437.28;;;19.70;38.16
61292;BME280;47165;42.664;23.368;2024-02-26T12:55:14;94423.81;;;19.81;36.16
61292;BME280;47165;42.664;23.368;2024-02-26T12:57:42;94431.16;;;19.96;35.88
61292;BME280;47165;42.664;23.368;2024-02-26T13:00:16;94432.88;;;20.13;35.75